createdAt,value
2023-01-12T00:01:41.710Z,187.68
2023-01-12T00:04:09.285Z,181.55
2023-01-12T00:06:36.161Z,189.10
2023-01-12T00:09:04.698Z,190.60
2023-01-12T00:11:31.556Z,175.38
2023-01-12T00:13:59.319Z,179.93
2023-01-12T00:16:35.993Z,173.52
2023-01-12T00:19:25.952Z,180.13
2023-01-12T00:22:12.899Z,178.63
2023-01-12T00:24:41.674Z,181.60
2023-01-12T00:27:11.277Z,176.15
2023-01-12T00:29:39.165Z,181.10
2023-01-12T00:32:07.917Z,175.75
2023-01-12T00:34:34.820Z,178.50
2023-01-12T00:37:02.132Z,182.18
2023-01-12T00:39:29.127Z,182.88
2023-01-12T00:42:14.591Z,177.70
2023-01-12T00:45:00.042Z,179.27
2023-01-12T00:47:26.927Z,180.40
2023-01-12T00:49:53.768Z,177.05
2023-01-12T00:52:30.513Z,176.85
2023-01-12T00:54:59.668Z,176.82
2023-01-12T00:57:28.486Z,176.95
2023-01-12T00:59:58.404Z,187.80
2023-01-12T01:02:26.301Z,189.45
2023-01-12T01:04:53.203Z,186.32
2023-01-12T01:07:21.860Z,183.20
2023-01-12T01:09:49.362Z,178.43
2023-01-12T01:12:16.311Z,181.75
2023-01-12T01:14:43.323Z,179.32
2023-01-12T01:17:10.141Z,174.88
2023-01-12T01:19:37.323Z,191.70
2023-01-12T01:22:04.379Z,180.73
2023-01-12T01:24:31.238Z,190.57
2023-01-12T01:26:58.090Z,188.25
2023-01-12T01:29:25.109Z,180.38
2023-01-12T01:31:55.040Z,185.15
2023-01-12T01:34:23.993Z,184.82
2023-01-12T01:36:51.039Z,181.02
2023-01-12T01:39:18.051Z,178.73
2023-01-12T01:41:45.045Z,182.55
2023-01-12T01:44:30.318Z,183.63
2023-01-12T01:47:01.720Z,192.05
2023-01-12T01:49:34.740Z,169.60
2023-01-12T01:52:09.934Z,179.43
2023-01-12T01:54:43.545Z,189.43
2023-01-12T01:57:13.817Z,184.30
2023-01-12T01:59:44.297Z,185.25
2023-01-12T02:02:11.720Z,191.30
2023-01-12T02:04:39.145Z,186.82
2023-01-12T02:07:07.329Z,194.27
2023-01-12T02:09:34.253Z,186.18
2023-01-12T02:12:21.183Z,187.50
2023-01-12T02:15:09.069Z,194.25
2023-01-12T02:17:54.137Z,186.45
2023-01-12T02:20:50.667Z,186.82
2023-01-12T02:23:23.162Z,188.07
2023-01-12T02:26:14.371Z,186.80
2023-01-12T02:29:12.088Z,184.25
2023-01-12T02:32:14.338Z,182.73
2023-01-12T02:35:18.354Z,185.07
2023-01-12T02:37:52.988Z,193.38
2023-01-12T02:41:09.248Z,184.77
2023-01-12T02:43:38.342Z,185.77
2023-01-12T02:46:11.685Z,183.50
2023-01-12T02:48:41.434Z,178.85
2023-01-12T02:51:25.460Z,180.52
2023-01-12T02:53:56.145Z,188.10
2023-01-12T02:56:48.616Z,189.15
2023-01-12T02:59:21.486Z,188.98
2023-01-12T03:01:51.346Z,181.52
2023-01-12T03:04:20.155Z,186.38
2023-01-12T03:06:56.076Z,186.63
2023-01-12T03:09:27.693Z,188.88
2023-01-12T03:11:58.376Z,187.52
2023-01-12T03:14:27.774Z,183.02
2023-01-12T03:16:56.713Z,196.55
2023-01-12T03:19:31.192Z,196.18
2023-01-12T03:22:00.814Z,200.20
2023-01-12T03:24:57.571Z,188.35
2023-01-12T03:27:30.580Z,185.65
2023-01-12T03:30:01.971Z,181.80
2023-01-12T03:32:29.175Z,177.73
2023-01-12T03:34:56.137Z,181.70
2023-01-12T03:37:32.743Z,185.68
2023-01-12T03:40:21.625Z,190.32
2023-01-12T03:43:24.920Z,181.77
2023-01-12T03:46:08.307Z,187.00
2023-01-12T03:48:57.321Z,189.57
2023-01-12T03:51:29.307Z,179.52
2023-01-12T03:53:57.833Z,183.57
2023-01-12T03:56:29.855Z,184.88
2023-01-12T03:58:59.973Z,178.85
2023-01-12T04:01:27.155Z,182.63
2023-01-12T04:03:54.048Z,180.40
2023-01-12T04:06:20.894Z,180.35
2023-01-12T04:08:47.749Z,195.02
2023-01-12T04:11:33.261Z,191.98
2023-01-12T04:14:00.339Z,191.02
2023-01-12T04:16:27.295Z,182.75
2023-01-12T04:18:54.213Z,178.43
2023-01-12T04:21:39.574Z,185.00
2023-01-12T04:24:06.611Z,176.98
2023-01-12T04:26:33.607Z,183.63
2023-01-12T04:29:00.529Z,184.45
2023-01-12T04:31:27.357Z,187.20
2023-01-12T04:33:54.236Z,182.02
2023-01-12T04:36:21.157Z,190.23
2023-01-12T04:38:48.046Z,186.38
2023-01-12T04:41:14.910Z,179.50
2023-01-12T04:43:41.931Z,189.50
2023-01-12T04:46:10.723Z,188.05
2023-01-12T04:48:40.935Z,184.82
2023-01-12T04:51:07.772Z,179.10
2023-01-12T04:53:34.682Z,179.23
2023-01-12T04:56:06.493Z,182.98
2023-01-12T04:58:33.733Z,177.10
2023-01-12T05:01:09.768Z,182.93
2023-01-12T05:03:36.954Z,176.70
2023-01-12T05:06:05.361Z,175.15
2023-01-12T05:08:51.271Z,173.02
2023-01-12T05:11:18.347Z,182.07
2023-01-12T05:13:45.178Z,184.15
2023-01-12T05:16:15.708Z,180.07
2023-01-12T05:18:44.899Z,186.48
2023-01-12T05:21:12.947Z,179.82
2023-01-12T05:23:40.086Z,182.32
2023-01-12T05:26:07.779Z,184.05
2023-01-12T05:28:34.652Z,192.25
2023-01-12T05:31:04.907Z,180.32
2023-01-12T05:33:32.513Z,175.48
2023-01-12T05:35:59.391Z,177.00
2023-01-12T05:38:26.242Z,190.57
2023-01-12T05:40:53.098Z,182.18
2023-01-12T05:43:38.450Z,189.45
2023-01-12T05:46:06.315Z,191.23
2023-01-12T05:48:33.144Z,178.63
2023-01-12T05:51:03.882Z,185.45
2023-01-12T05:53:31.225Z,182.50
2023-01-12T05:55:58.377Z,187.45
2023-01-12T05:58:25.640Z,194.02
2023-01-12T06:00:52.631Z,203.32
2023-01-12T06:03:19.564Z,192.40
2023-01-12T06:05:53.950Z,174.48
2023-01-12T06:08:20.980Z,187.90
2023-01-12T06:10:48.385Z,189.40
2023-01-12T06:13:33.773Z,177.30
2023-01-12T06:16:06.163Z,176.05
2023-01-12T06:18:35.594Z,183.30
2023-01-12T06:21:03.847Z,188.25
2023-01-12T06:23:35.525Z,196.07
2023-01-12T06:26:10.362Z,186.10
2023-01-12T06:28:38.722Z,193.70
2023-01-12T06:31:08.159Z,220.30
2023-01-12T06:33:35.428Z,213.70
2023-01-12T06:36:02.555Z,202.30
2023-01-12T06:38:31.739Z,210.73
2023-01-12T06:41:03.102Z,200.88
2023-01-12T06:43:30.266Z,205.60
2023-01-12T06:45:57.311Z,189.23
2023-01-12T06:48:26.142Z,191.50
2023-01-12T06:50:58.944Z,186.85
2023-01-12T06:53:25.769Z,176.63
2023-01-12T06:55:52.757Z,184.45
2023-01-12T06:58:19.764Z,180.45
2023-01-12T07:00:46.699Z,176.07
2023-01-12T07:03:19.006Z,182.45
2023-01-12T07:05:46.733Z,183.40
2023-01-12T07:08:19.405Z,188.35
2023-01-12T07:10:46.901Z,181.73
2023-01-12T07:13:13.834Z,192.00
2023-01-12T07:15:40.758Z,198.82
2023-01-12T07:18:07.919Z,208.43
2023-01-12T07:20:35.068Z,207.50
2023-01-12T07:23:02.047Z,202.63
2023-01-12T07:25:29.070Z,196.57
2023-01-12T07:27:57.905Z,203.50
2023-01-12T07:30:26.670Z,195.40
2023-01-12T07:32:53.746Z,201.23
2023-01-12T07:35:21.335Z,196.45
2023-01-12T07:37:54.192Z,198.75
2023-01-12T07:40:21.140Z,199.32
2023-01-12T07:42:48.147Z,204.27
2023-01-12T07:45:15.065Z,212.57
2023-01-12T07:47:41.959Z,198.57
2023-01-12T07:50:10.344Z,199.77
2023-01-12T07:52:38.225Z,201.25
2023-01-12T07:55:05.516Z,193.45
2023-01-12T07:57:32.377Z,195.88
2023-01-12T07:59:59.256Z,190.65
2023-01-12T08:02:26.216Z,191.07
2023-01-12T08:04:54.936Z,183.88
2023-01-12T08:07:21.793Z,193.43
2023-01-12T08:09:48.588Z,194.73
2023-01-12T08:12:15.612Z,188.95
2023-01-12T08:14:42.474Z,179.07
2023-01-12T08:17:19.133Z,176.45
2023-01-12T08:19:57.573Z,189.13
2023-01-12T08:22:30.990Z,194.23
2023-01-12T08:25:03.911Z,181.95
2023-01-12T08:27:34.008Z,183.63
2023-01-12T08:30:04.400Z,188.25
2023-01-12T08:32:32.959Z,181.77
2023-01-12T08:35:03.671Z,170.55
2023-01-12T08:37:34.494Z,180.45
2023-01-12T08:40:01.672Z,181.23
2023-01-12T08:42:31.522Z,178.43
2023-01-12T08:44:58.785Z,179.57
2023-01-12T08:47:28.855Z,182.23
2023-01-12T08:49:56.609Z,180.50
2023-01-12T08:52:23.665Z,187.23
2023-01-12T08:54:50.531Z,185.52
2023-01-12T08:57:19.311Z,191.90
2023-01-12T08:59:46.545Z,196.20
2023-01-12T09:02:14.761Z,193.00
2023-01-12T09:04:42.315Z,182.02
2023-01-12T09:07:11.089Z,188.35
2023-01-12T09:09:38.658Z,185.02
2023-01-12T09:12:05.672Z,187.90
2023-01-12T09:14:38.971Z,183.00
2023-01-12T09:17:07.200Z,187.25
2023-01-12T09:19:34.178Z,182.65
2023-01-12T09:22:01.079Z,192.43
2023-01-12T09:24:28.150Z,187.38
2023-01-12T09:26:54.993Z,182.85
2023-01-12T09:29:21.895Z,183.95
2023-01-12T09:31:48.827Z,177.80
2023-01-12T09:34:15.845Z,185.48
2023-01-12T09:36:42.930Z,171.30
2023-01-12T09:39:26.864Z,190.60
2023-01-12T09:42:14.708Z,176.60
2023-01-12T09:45:02.348Z,172.60
2023-01-12T09:47:47.955Z,175.77
2023-01-12T09:50:19.906Z,178.10
2023-01-12T09:52:46.653Z,198.88
2023-01-12T09:55:17.436Z,194.32
2023-01-12T09:58:06.389Z,188.00
2023-01-12T10:00:33.313Z,196.25
2023-01-12T10:03:12.371Z,192.45
2023-01-12T10:05:52.391Z,199.35
2023-01-12T10:08:48.653Z,200.02
2023-01-12T10:11:52.531Z,200.93
2023-01-12T10:14:37.377Z,205.27
2023-01-12T10:17:17.602Z,196.43
2023-01-12T10:19:57.941Z,197.82
2023-01-12T10:22:38.038Z,192.02
2023-01-12T10:25:18.543Z,194.43
2023-01-12T10:27:47.864Z,200.23
2023-01-12T10:30:17.097Z,201.88
2023-01-12T10:32:44.082Z,206.93
2023-01-12T10:35:19.541Z,195.63
2023-01-12T10:37:52.796Z,208.02
2023-01-12T10:40:31.382Z,203.18
2023-01-12T10:43:20.007Z,218.40
2023-01-12T10:46:12.116Z,225.15
2023-01-12T10:48:42.949Z,216.90
2023-01-12T10:51:30.434Z,205.38
2023-01-12T10:54:09.623Z,201.25
2023-01-12T10:56:37.798Z,206.00
2023-01-12T10:59:19.892Z,200.10
2023-01-12T11:02:05.633Z,201.55
2023-01-12T11:04:53.888Z,201.97
2023-01-12T11:07:30.804Z,197.13
2023-01-12T11:10:26.318Z,196.45
2023-01-12T11:12:57.458Z,192.10
2023-01-12T11:15:24.846Z,192.35
2023-01-12T11:18:11.494Z,191.27
2023-01-12T11:23:39.445Z,188.45
2023-01-12T11:26:17.659Z,194.30
2023-01-12T11:28:55.947Z,182.85
2023-01-12T11:31:33.901Z,190.75
2023-01-12T11:34:22.713Z,181.52
2023-01-12T11:37:00.887Z,192.82
2023-01-12T11:39:31.070Z,189.18
2023-01-12T11:42:22.028Z,188.32
2023-01-12T11:44:51.748Z,188.30
2023-01-12T11:47:27.056Z,183.98
2023-01-12T11:50:24.981Z,191.33
2023-01-12T11:52:53.043Z,191.75
2023-01-12T11:55:35.462Z,189.05
2023-01-12T11:58:30.080Z,193.68
2023-01-12T12:01:09.096Z,185.35
2023-01-12T12:03:39.211Z,185.82
2023-01-12T12:06:25.841Z,188.38
2023-01-12T12:09:05.602Z,173.73
2023-01-12T12:11:53.759Z,176.80
2023-01-12T12:14:39.286Z,183.30
2023-01-12T12:17:09.983Z,183.65
2023-01-12T12:19:36.777Z,183.60
2023-01-12T12:22:32.782Z,182.73
2023-01-12T12:25:27.183Z,184.45
2023-01-12T12:28:00.188Z,177.05
2023-01-12T12:30:33.182Z,178.45
2023-01-12T12:33:12.147Z,186.85
2023-01-12T12:35:44.880Z,182.85
2023-01-12T12:38:11.750Z,189.90
2023-01-12T12:41:07.315Z,179.52
2023-01-12T12:43:55.741Z,179.30
2023-01-12T12:46:40.048Z,176.43
2023-01-12T12:49:13.011Z,173.73
2023-01-12T12:51:41.248Z,172.57
2023-01-12T12:54:16.010Z,169.18
2023-01-12T12:56:43.661Z,172.90
2023-01-12T12:59:32.296Z,177.93
2023-01-12T13:02:01.392Z,173.38
2023-01-12T13:04:52.261Z,169.70
2023-01-12T13:07:21.457Z,183.80
2023-01-12T13:09:49.805Z,177.60
2023-01-12T13:12:30.066Z,181.43
2023-01-12T13:15:21.464Z,181.63
2023-01-12T13:17:50.602Z,177.57
2023-01-12T13:20:26.136Z,175.30
2023-01-12T13:22:53.354Z,175.35
2023-01-12T13:25:20.591Z,165.45
2023-01-12T13:27:47.469Z,170.80
2023-01-12T13:30:26.600Z,169.63
2023-01-12T13:32:53.374Z,172.32
2023-01-12T13:35:24.481Z,174.48
2023-01-12T13:38:08.226Z,178.90
2023-01-12T13:40:35.060Z,181.55
2023-01-12T13:43:16.907Z,182.85
2023-01-12T13:45:49.811Z,171.48
2023-01-12T13:48:19.162Z,184.73
2023-01-12T13:50:49.167Z,178.95
2023-01-12T13:53:29.000Z,182.57
2023-01-12T13:55:58.733Z,178.60
2023-01-12T13:58:26.153Z,178.88
2023-01-12T14:01:00.290Z,180.80
2023-01-12T14:03:58.634Z,182.45
2023-01-12T14:06:40.610Z,173.45
2023-01-12T14:09:22.729Z,177.35
2023-01-12T14:12:09.785Z,177.57
2023-01-12T14:15:16.669Z,172.30
2023-01-12T14:17:53.743Z,165.27
2023-01-12T14:20:23.485Z,166.10
2023-01-12T14:23:11.645Z,172.25
2023-01-12T14:25:38.586Z,167.70
2023-01-12T14:28:05.617Z,165.50
2023-01-12T14:30:32.806Z,163.77
2023-01-12T14:32:59.757Z,168.77
2023-01-12T14:35:26.728Z,164.75
2023-01-12T14:37:58.147Z,162.30
2023-01-12T14:40:31.507Z,166.77
2023-01-12T14:43:19.374Z,164.93
2023-01-12T14:46:17.275Z,169.32
2023-01-12T14:49:12.566Z,168.20
2023-01-12T14:51:40.330Z,169.20
2023-01-12T14:54:07.199Z,163.60
2023-01-12T14:56:56.823Z,163.45
2023-01-12T14:59:28.884Z,164.40
2023-01-12T15:02:38.551Z,171.38
2023-01-12T15:05:05.411Z,164.57
2023-01-12T15:07:35.955Z,161.45
2023-01-12T15:10:08.871Z,170.68
2023-01-12T15:12:39.158Z,168.32
2023-01-12T15:15:48.988Z,161.20
2023-01-12T15:18:34.829Z,170.88
2023-01-12T15:21:21.471Z,166.57
2023-01-12T15:26:34.893Z,157.70
2023-01-12T15:29:01.762Z,162.27
2023-01-12T15:31:32.565Z,169.93
2023-01-12T15:34:00.957Z,161.10
2023-01-12T15:36:28.741Z,165.57
2023-01-12T15:38:55.602Z,163.77
2023-01-12T15:41:49.744Z,158.23
2023-01-12T15:44:18.929Z,157.52
2023-01-12T15:46:46.314Z,161.15
2023-01-12T15:49:14.718Z,159.00
2023-01-12T15:51:47.507Z,160.85
2023-01-12T15:54:16.617Z,169.82
2023-01-12T15:56:43.489Z,174.85
2023-01-12T15:59:10.385Z,168.00
2023-01-12T16:01:44.096Z,175.07
2023-01-12T16:04:42.532Z,169.98
2023-01-12T16:07:07.698Z,178.77
2023-01-12T16:09:34.958Z,170.52
2023-01-12T16:12:01.770Z,172.05
2023-01-12T16:14:29.368Z,180.27
2023-01-12T16:16:56.236Z,175.23
2023-01-12T16:19:23.804Z,173.57
2023-01-12T16:21:50.793Z,165.10
2023-01-12T16:24:18.114Z,174.80
2023-01-12T16:26:46.128Z,174.45
2023-01-12T16:29:13.241Z,174.00
2023-01-12T16:31:40.143Z,176.38
2023-01-12T16:34:07.064Z,164.23
2023-01-12T16:36:34.710Z,163.00
2023-01-12T16:39:01.646Z,174.82
2023-01-12T16:41:28.569Z,165.48
2023-01-12T16:43:58.826Z,180.45
2023-01-12T16:46:25.705Z,165.73
2023-01-12T16:48:55.420Z,166.55
2023-01-12T16:51:22.826Z,163.40
2023-01-12T16:53:51.566Z,160.98
2023-01-12T16:56:18.610Z,158.45
2023-01-12T16:58:48.641Z,160.45
2023-01-12T17:01:24.863Z,162.50
2023-01-12T17:03:57.850Z,176.43
2023-01-12T17:06:27.034Z,174.20
2023-01-12T17:08:55.052Z,169.50
2023-01-12T17:11:27.698Z,163.35
2023-01-12T17:13:56.577Z,163.60
2023-01-12T17:16:25.593Z,165.73
2023-01-12T17:18:53.876Z,172.43
2023-01-12T17:21:21.418Z,165.43
2023-01-12T17:23:48.717Z,173.07
2023-01-12T17:26:18.241Z,162.50
2023-01-12T17:28:46.686Z,164.48
2023-01-12T17:31:16.668Z,174.15
2023-01-12T17:33:44.023Z,168.63
2023-01-12T17:36:12.420Z,168.80
2023-01-12T17:38:40.237Z,177.13
2023-01-12T17:41:34.415Z,171.85
2023-01-12T17:44:03.319Z,184.35
2023-01-12T17:46:30.642Z,170.45
2023-01-12T17:48:59.030Z,173.10
2023-01-12T17:51:26.244Z,179.80
2023-01-12T17:53:57.734Z,174.45
2023-01-12T17:56:26.317Z,180.10
2023-01-12T17:58:54.391Z,174.18
2023-01-12T18:01:23.294Z,181.75
2023-01-12T18:03:50.365Z,182.40
2023-01-12T18:06:25.765Z,185.38
2023-01-12T18:08:56.421Z,174.93
2023-01-12T18:11:23.997Z,181.13
2023-01-12T18:13:51.503Z,184.48
2023-01-12T18:16:18.526Z,201.55
2023-01-12T18:18:45.605Z,197.95
2023-01-12T18:21:15.764Z,210.02
2023-01-12T18:23:43.792Z,204.65
2023-01-12T18:26:13.652Z,205.95
2023-01-12T18:28:40.928Z,203.23
2023-01-12T18:31:14.129Z,200.27
2023-01-12T18:33:41.231Z,207.38
2023-01-12T18:36:09.319Z,215.27
2023-01-12T18:38:38.062Z,207.35
2023-01-12T18:41:23.663Z,205.13
2023-01-12T18:43:51.986Z,213.48
2023-01-12T18:46:19.540Z,216.30
2023-01-12T18:48:48.110Z,214.27
2023-01-12T18:51:33.882Z,211.43
2023-01-12T18:54:00.854Z,216.35
2023-01-12T18:56:27.671Z,216.57
2023-01-12T18:58:54.620Z,222.38
2023-01-12T19:01:25.398Z,214.63
2023-01-12T19:03:53.120Z,226.60
2023-01-12T19:06:43.619Z,230.48
2023-01-12T19:09:31.102Z,227.00
2023-01-12T19:11:59.059Z,229.25
2023-01-12T19:14:44.792Z,221.98
2023-01-12T19:17:27.171Z,217.93
2023-01-12T19:19:54.939Z,227.18
2023-01-12T19:22:40.334Z,226.55
2023-01-12T19:25:26.063Z,223.00
2023-01-12T19:28:11.274Z,221.10
2023-01-12T19:30:41.184Z,225.80
2023-01-12T19:33:17.043Z,221.48
2023-01-12T19:35:45.479Z,249.18
2023-01-12T19:38:14.622Z,235.48
2023-01-12T19:40:50.187Z,238.13
2023-01-12T19:43:23.667Z,241.05
2023-01-12T19:45:58.870Z,238.15
2023-01-12T19:48:26.393Z,242.63
2023-01-12T19:50:54.213Z,234.48
2023-01-12T19:53:28.196Z,235.20
2023-01-12T19:55:55.175Z,233.68
2023-01-12T19:58:22.380Z,232.40
2023-01-12T20:00:50.023Z,228.75
2023-01-12T20:03:19.465Z,233.18
2023-01-12T20:05:48.759Z,221.38
2023-01-12T20:08:15.698Z,225.48
2023-01-12T20:10:42.779Z,232.63
2023-01-12T20:13:12.402Z,221.77
2023-01-12T20:15:43.224Z,215.02
2023-01-12T20:18:10.215Z,211.60
2023-01-12T20:20:37.128Z,209.48
2023-01-12T20:23:04.005Z,210.02
2023-01-12T20:25:30.955Z,212.00
2023-01-12T20:27:57.948Z,203.43
2023-01-12T20:30:37.338Z,207.13
2023-01-12T20:33:05.366Z,211.05
2023-01-12T20:35:32.558Z,207.15
2023-01-12T20:37:59.393Z,214.48
2023-01-12T20:40:26.326Z,217.43
2023-01-12T20:42:53.188Z,212.05
2023-01-12T20:45:20.264Z,220.40
2023-01-12T20:47:47.666Z,218.25
2023-01-12T20:50:15.150Z,214.88
2023-01-12T20:52:42.101Z,222.73
2023-01-12T20:55:09.658Z,219.73
2023-01-12T20:57:41.053Z,217.75
2023-01-12T21:00:09.404Z,215.15
2023-01-12T21:02:37.101Z,207.50
2023-01-12T21:05:05.086Z,219.25
2023-01-12T21:07:31.999Z,213.85
2023-01-12T21:09:58.984Z,205.07
2023-01-12T21:12:27.655Z,213.57
2023-01-12T21:14:55.006Z,211.73
2023-01-12T21:17:22.089Z,204.73
2023-01-12T21:19:48.907Z,200.00
2023-01-12T21:22:15.808Z,202.82
2023-01-12T21:24:42.784Z,206.50
2023-01-12T21:27:09.621Z,205.27
2023-01-12T21:29:36.479Z,206.45
2023-01-12T21:32:03.561Z,226.95
2023-01-12T21:34:30.438Z,221.05
2023-01-12T21:36:57.714Z,224.57
2023-01-12T21:39:24.689Z,234.32
2023-01-12T21:42:10.064Z,239.90
2023-01-12T21:44:36.872Z,232.77
2023-01-12T21:47:03.773Z,252.18
2023-01-12T21:49:30.843Z,236.32
2023-01-12T21:51:57.759Z,230.38
2023-01-12T21:54:24.604Z,231.15
2023-01-12T21:56:51.447Z,228.27
2023-01-12T21:59:18.616Z,226.75
2023-01-12T22:01:45.657Z,221.68
2023-01-12T22:04:13.039Z,227.73
2023-01-12T22:06:39.992Z,230.20
2023-01-12T22:09:07.783Z,226.55
2023-01-12T22:11:34.832Z,221.52
2023-01-12T22:14:01.773Z,215.27
2023-01-12T22:16:28.630Z,215.30
2023-01-12T22:18:55.534Z,210.68
2023-01-12T22:21:22.414Z,214.43
2023-01-12T22:23:49.395Z,212.00
2023-01-12T22:26:17.413Z,216.32
2023-01-12T22:28:47.948Z,207.30
2023-01-12T22:31:17.945Z,203.93
2023-01-12T22:33:57.707Z,205.00
2023-01-12T22:36:24.920Z,213.82
2023-01-12T22:38:51.749Z,212.85
2023-01-12T22:41:21.912Z,210.20
2023-01-12T22:43:49.898Z,203.18
2023-01-12T22:46:25.503Z,203.40
2023-01-12T22:48:55.471Z,203.05
2023-01-12T22:51:26.666Z,197.95
2023-01-12T22:53:54.648Z,194.10
2023-01-12T22:56:21.680Z,198.38
2023-01-12T22:58:50.101Z,209.60
2023-01-12T23:01:18.738Z,213.98
2023-01-12T23:03:46.249Z,205.50
2023-01-12T23:06:16.033Z,212.48
2023-01-12T23:08:44.650Z,210.63
2023-01-12T23:11:14.823Z,202.45
2023-01-12T23:13:43.258Z,214.45
2023-01-12T23:16:12.886Z,214.77
2023-01-12T23:18:41.576Z,208.77
2023-01-12T23:21:18.321Z,208.45
2023-01-12T23:23:47.533Z,211.35
2023-01-12T23:26:17.404Z,213.88
2023-01-12T23:28:53.348Z,220.73
2023-01-12T23:31:23.121Z,206.05
2023-01-12T23:33:50.753Z,215.68
2023-01-12T23:36:20.656Z,217.88
2023-01-12T23:38:48.199Z,214.30
2023-01-12T23:41:20.924Z,204.20
2023-01-12T23:43:50.403Z,216.35
2023-01-12T23:46:22.098Z,209.60
2023-01-12T23:48:54.607Z,207.32
2023-01-12T23:51:22.812Z,209.00
2023-01-12T23:53:52.467Z,214.07
2023-01-12T23:56:19.724Z,214.48
2023-01-12T23:58:47.847Z,208.57
